createdAt,value
2022-10-25T00:00:47.894Z,98823.19
2022-10-25T00:03:16.669Z,98839.81
2022-10-25T00:05:45.004Z,98845.09
2022-10-25T00:08:13.008Z,98840.53
2022-10-25T00:10:43.454Z,98840.69
2022-10-25T00:13:11.915Z,98850.72
2022-10-25T00:15:41.514Z,98848.84
2022-10-25T00:18:10.170Z,98848.69
2022-10-25T00:20:38.984Z,98845.25
2022-10-25T00:23:07.130Z,98856.00
2022-10-25T00:25:35.563Z,98841.97
2022-10-25T00:28:03.769Z,98845.41
2022-10-25T00:30:32.081Z,98837.91
2022-10-25T00:33:01.948Z,98842.41
2022-10-25T00:35:30.184Z,98843.97
2022-10-25T00:37:58.467Z,98844.84
2022-10-25T00:40:26.833Z,98850.22
2022-10-25T00:42:55.000Z,98837.00
2022-10-25T00:45:25.521Z,98847.56
2022-10-25T00:47:59.424Z,98839.00
2022-10-25T00:50:43.213Z,98838.84
2022-10-25T00:53:16.620Z,98844.28
2022-10-25T00:55:49.874Z,98840.56
2022-10-25T00:58:23.341Z,98837.28
2022-10-25T01:00:51.662Z,98844.44
2022-10-25T01:03:22.874Z,98844.56
2022-10-25T01:05:53.918Z,98837.41
2022-10-25T01:08:23.739Z,98827.00
2022-10-25T01:10:51.902Z,98828.66
2022-10-25T01:13:20.289Z,98829.28
2022-10-25T01:16:00.694Z,98832.56
2022-10-25T01:18:43.542Z,98836.00
2022-10-25T01:21:44.511Z,98838.94
2022-10-25T01:24:37.297Z,98835.44
2022-10-25T01:27:39.025Z,98824.00
2022-10-25T01:30:10.538Z,98832.56
2022-10-25T01:32:50.133Z,98839.72
2022-10-25T01:35:27.177Z,98831.03
2022-10-25T01:38:06.760Z,98827.75
2022-10-25T01:40:44.395Z,98824.16
2022-10-25T01:43:24.608Z,98828.59
2022-10-25T01:46:01.246Z,98813.88
2022-10-25T01:48:35.689Z,98808.47
2022-10-25T01:51:11.415Z,98796.31
2022-10-25T01:53:47.321Z,98798.03
2022-10-25T01:56:25.101Z,98783.53
2022-10-25T01:59:25.980Z,98800.91
2022-10-25T02:02:02.775Z,98809.75
2022-10-25T02:04:44.315Z,98803.72
2022-10-25T02:07:17.082Z,98787.75
2022-10-25T02:09:55.080Z,98800.31
2022-10-25T02:12:29.416Z,98790.34
2022-10-25T02:15:09.013Z,98794.75
2022-10-25T02:17:42.549Z,98801.47
2022-10-25T02:20:16.827Z,98803.59
2022-10-25T02:22:46.081Z,98793.03
2022-10-25T02:25:16.102Z,98784.31
2022-10-25T02:27:47.254Z,98793.91
2022-10-25T02:30:15.851Z,98802.72
2022-10-25T02:32:44.148Z,98790.88
2022-10-25T02:35:16.713Z,98808.75
2022-10-25T02:37:45.391Z,98789.47
2022-10-25T02:40:14.373Z,98794.44
2022-10-25T02:42:42.679Z,98795.41
2022-10-25T02:45:12.315Z,98798.19
2022-10-25T02:47:41.319Z,98804.19
2022-10-25T02:50:11.207Z,98804.38
2022-10-25T02:52:41.263Z,98807.00
2022-10-25T02:55:09.959Z,98803.19
2022-10-25T02:57:39.882Z,98798.19
2022-10-25T03:02:41.442Z,98803.31
2022-10-25T03:05:10.174Z,98800.03
2022-10-25T03:07:38.529Z,98800.81
2022-10-25T03:10:09.901Z,98800.03
2022-10-25T03:12:39.229Z,98796.31
2022-10-25T03:15:10.650Z,98794.63
2022-10-25T03:17:39.423Z,98801.59
2022-10-25T03:20:09.022Z,98805.19
2022-10-25T03:22:37.101Z,98805.81
2022-10-25T03:25:06.302Z,98800.72
2022-10-25T03:27:35.743Z,98798.19
2022-10-25T03:30:03.789Z,98806.88
2022-10-25T03:32:32.490Z,98799.03
2022-10-25T03:35:00.642Z,98806.88
2022-10-25T03:37:28.688Z,98803.31
2022-10-25T03:39:57.256Z,98796.91
2022-10-25T03:42:25.716Z,98804.88
2022-10-25T03:44:55.161Z,98812.75
2022-10-25T03:47:23.575Z,98812.03
2022-10-25T03:49:51.733Z,98810.47
2022-10-25T03:52:19.878Z,98814.75
2022-10-25T03:54:48.407Z,98823.69
2022-10-25T03:57:16.701Z,98826.78
2022-10-25T03:59:45.078Z,98822.72
2022-10-25T04:02:15.993Z,98818.41
2022-10-25T04:04:44.077Z,98828.00
2022-10-25T04:07:12.190Z,98830.78
2022-10-25T04:09:41.076Z,98829.88
2022-10-25T04:12:09.462Z,98837.59
2022-10-25T04:14:37.559Z,98831.44
2022-10-25T04:17:06.085Z,98842.81
2022-10-25T04:19:35.714Z,98843.59
2022-10-25T04:22:04.292Z,98845.28
2022-10-25T04:24:32.698Z,98848.56
2022-10-25T04:27:00.849Z,98853.84
2022-10-25T04:29:28.945Z,98845.28
2022-10-25T04:31:57.576Z,98847.75
2022-10-25T04:34:25.671Z,98859.16
2022-10-25T04:36:55.193Z,98855.59
2022-10-25T04:39:23.697Z,98854.94
2022-10-25T04:41:52.068Z,98855.88
2022-10-25T04:44:20.098Z,98862.59
2022-10-25T04:46:49.163Z,98863.50
2022-10-25T04:49:17.904Z,98872.16
2022-10-25T04:51:46.319Z,98862.72
2022-10-25T04:54:16.330Z,98876.88
2022-10-25T04:56:44.429Z,98873.16
2022-10-25T04:59:12.762Z,98880.00
2022-10-25T05:01:41.932Z,98870.59
2022-10-25T05:04:10.497Z,98887.16
2022-10-25T05:06:38.999Z,98887.00
2022-10-25T05:09:07.253Z,98889.03
2022-10-25T05:11:38.068Z,98891.44
2022-10-25T05:14:06.512Z,98908.31
2022-10-25T05:16:35.775Z,98906.72
2022-10-25T05:19:04.144Z,98905.00
2022-10-25T05:21:32.208Z,98911.16
2022-10-25T05:24:02.124Z,98917.28
2022-10-25T05:26:31.892Z,98910.31
2022-10-25T05:29:02.339Z,98924.16
2022-10-25T05:31:32.376Z,98928.03
2022-10-25T05:34:02.217Z,98930.38
2022-10-25T05:36:32.569Z,98929.16
2022-10-25T05:39:01.981Z,98933.78
2022-10-25T05:41:33.330Z,98938.28
2022-10-25T05:44:07.047Z,98934.72
2022-10-25T05:46:36.158Z,98944.53
2022-10-25T05:49:04.648Z,98950.72
2022-10-25T05:51:36.154Z,98956.88
2022-10-25T05:54:06.704Z,98959.53
2022-10-25T05:56:36.953Z,98951.63
2022-10-25T05:59:10.046Z,98961.16
2022-10-25T06:01:40.243Z,98963.84
2022-10-25T06:04:09.673Z,98964.72
2022-10-25T06:06:38.708Z,98979.00
2022-10-25T06:09:08.066Z,98971.88
2022-10-25T06:11:37.009Z,98964.59
2022-10-25T06:14:07.539Z,98979.88
2022-10-25T06:16:35.996Z,98970.94
2022-10-25T06:19:04.483Z,98986.94
2022-10-25T06:21:32.621Z,98993.44
2022-10-25T06:24:01.410Z,99001.59
2022-10-25T06:26:31.203Z,99003.66
2022-10-25T06:29:01.249Z,98996.56
2022-10-25T06:31:32.304Z,99006.34
2022-10-25T06:34:01.275Z,99013.25
2022-10-25T06:36:31.075Z,99021.16
2022-10-25T06:39:05.512Z,99021.16
2022-10-25T06:41:37.174Z,99021.00
2022-10-25T06:44:07.313Z,99019.31
2022-10-25T06:47:11.657Z,99024.72
2022-10-25T06:49:28.675Z,99028.16
2022-10-25T06:51:57.044Z,99029.72
2022-10-25T06:54:26.864Z,99035.16
2022-10-25T06:56:55.520Z,99038.47
2022-10-25T06:59:23.829Z,99042.16
2022-10-25T07:01:54.324Z,99051.22
2022-10-25T07:04:22.836Z,99057.34
2022-10-25T07:06:54.331Z,99051.03
2022-10-25T07:09:24.157Z,99051.03
2022-10-25T07:11:52.430Z,99045.75
2022-10-25T07:14:20.770Z,99056.31
2022-10-25T07:16:49.276Z,99056.16
2022-10-25T07:19:19.194Z,99057.19
2022-10-25T07:21:47.688Z,99058.66
2022-10-25T07:24:16.109Z,99066.88
2022-10-25T07:26:44.278Z,99068.56
2022-10-25T07:29:12.506Z,99073.75
2022-10-25T07:31:44.543Z,99079.03
2022-10-25T07:34:14.765Z,99077.28
2022-10-25T07:36:44.776Z,99082.31
2022-10-25T07:39:13.748Z,99067.78
2022-10-25T07:41:42.104Z,99075.06
2022-10-25T07:44:15.982Z,99070.03
2022-10-25T07:46:45.080Z,99080.47
2022-10-25T07:49:13.552Z,99076.91
2022-10-25T07:51:43.467Z,99074.06
2022-10-25T07:54:11.799Z,99095.13
2022-10-25T07:56:40.183Z,99097.94
2022-10-25T07:59:08.823Z,99096.06
2022-10-25T08:01:37.842Z,99095.28
2022-10-25T08:04:06.390Z,99089.06
2022-10-25T08:06:36.260Z,99101.34
2022-10-25T08:09:14.539Z,99094.47
2022-10-25T08:11:49.015Z,99105.66
2022-10-25T08:14:17.842Z,99104.38
2022-10-25T08:16:46.032Z,99122.22
2022-10-25T08:19:14.510Z,99114.63
2022-10-25T08:21:43.089Z,99111.53
2022-10-25T08:24:15.841Z,99131.47
2022-10-25T08:26:44.250Z,99131.22
2022-10-25T08:29:12.660Z,99136.50
2022-10-25T08:31:44.281Z,99131.34
2022-10-25T08:34:12.608Z,99143.25
2022-10-25T08:36:41.435Z,99142.34
2022-10-25T08:39:09.935Z,99146.41
2022-10-25T08:41:46.420Z,99148.81
2022-10-25T08:44:20.360Z,99158.41
2022-10-25T08:46:58.123Z,99169.97
2022-10-25T08:49:34.814Z,99166.38
2022-10-25T08:52:04.553Z,99166.13
2022-10-25T08:54:37.432Z,99185.44
2022-10-25T08:57:22.938Z,99191.78
2022-10-25T08:59:54.226Z,99178.94
2022-10-25T09:02:29.633Z,99190.59
2022-10-25T09:04:58.216Z,99181.47
2022-10-25T09:07:55.321Z,99201.97
2022-10-25T09:10:37.453Z,99204.19
2022-10-25T09:13:15.538Z,99198.81
2022-10-25T09:15:56.001Z,99201.31
2022-10-25T09:18:36.721Z,99201.84
2022-10-25T09:21:15.694Z,99216.41
2022-10-25T09:24:00.353Z,99217.19
2022-10-25T09:26:51.151Z,99226.72
2022-10-25T09:29:26.836Z,99233.44
2022-10-25T09:31:58.999Z,99230.00
2022-10-25T09:34:33.168Z,99236.91
2022-10-25T09:37:11.343Z,99237.69
2022-10-25T09:39:44.209Z,99244.19
2022-10-25T09:42:19.157Z,99256.75
2022-10-25T09:44:53.306Z,99254.91
2022-10-25T09:47:31.572Z,99256.47
2022-10-25T09:50:04.510Z,99259.25
2022-10-25T09:52:42.143Z,99262.41
2022-10-25T09:55:38.076Z,99268.50
2022-10-25T09:58:07.341Z,99262.09
2022-10-25T10:00:43.786Z,99271.69
2022-10-25T10:03:13.992Z,99275.66
2022-10-25T10:05:48.571Z,99277.22
2022-10-25T10:08:16.948Z,99288.75
2022-10-25T10:10:48.087Z,99286.22
2022-10-25T10:13:25.295Z,99282.53
2022-10-25T10:15:58.383Z,99279.38
2022-10-25T10:18:29.483Z,99304.09
2022-10-25T10:21:04.528Z,99306.06
2022-10-25T10:23:37.029Z,99306.06
2022-10-25T10:26:13.112Z,99300.78
2022-10-25T10:28:47.198Z,99300.66
2022-10-25T10:31:18.306Z,99291.81
2022-10-25T10:33:50.745Z,99305.16
2022-10-25T10:36:27.884Z,99319.38
2022-10-25T10:39:09.557Z,99304.22
2022-10-25T10:41:40.092Z,99316.66
2022-10-25T10:44:17.290Z,99320.47
2022-10-25T10:46:49.276Z,99317.53
2022-10-25T10:49:18.306Z,99328.03
2022-10-25T10:51:47.535Z,99328.03
2022-10-25T10:54:40.397Z,99324.47
2022-10-25T10:57:23.737Z,99326.59
2022-10-25T10:59:56.836Z,99321.56
2022-10-25T11:02:41.465Z,99332.94
2022-10-25T11:05:26.678Z,99339.28
2022-10-25T11:07:59.280Z,99346.31
2022-10-25T11:10:30.390Z,99349.94
2022-10-25T11:13:13.113Z,99351.25
2022-10-25T11:16:15.225Z,99361.53
2022-10-25T11:19:15.740Z,99363.00
2022-10-25T11:21:54.513Z,99360.25
2022-10-25T11:24:32.775Z,99362.69
2022-10-25T11:27:10.161Z,99360.72
2022-10-25T11:29:54.262Z,99363.16
2022-10-25T11:32:54.277Z,99365.06
2022-10-25T11:35:42.033Z,99355.91
2022-10-25T11:38:19.909Z,99353.56
2022-10-25T11:40:58.495Z,99362.19
2022-10-25T11:43:44.644Z,99370.91
2022-10-25T11:46:23.791Z,99364.38
2022-10-25T11:49:15.406Z,99370.78
2022-10-25T11:52:03.944Z,99365.56
2022-10-25T11:54:39.777Z,99385.31
2022-10-25T11:57:21.665Z,99387.88
2022-10-25T12:00:02.142Z,99387.53
2022-10-25T12:03:07.506Z,99388.06
2022-10-25T12:05:44.631Z,99388.47
2022-10-25T12:08:29.138Z,99405.91
2022-10-25T12:11:03.670Z,99409.81
2022-10-25T12:13:37.840Z,99395.66
2022-10-25T12:16:11.181Z,99402.25
2022-10-25T12:18:43.774Z,99408.44
2022-10-25T12:21:17.114Z,99416.81
2022-10-25T12:23:49.760Z,99416.44
2022-10-25T12:26:27.200Z,99396.97
2022-10-25T12:28:56.035Z,99420.44
2022-10-25T12:31:28.278Z,99418.03
2022-10-25T12:34:01.110Z,99426.16
2022-10-25T12:36:34.025Z,99426.91
2022-10-25T12:39:11.315Z,99442.72
2022-10-25T12:41:41.437Z,99444.59
2022-10-25T12:44:24.518Z,99435.63
2022-10-25T12:47:18.386Z,99435.69
2022-10-25T12:50:09.094Z,99436.50
2022-10-25T12:52:42.110Z,99446.22
2022-10-25T12:55:33.529Z,99437.50
2022-10-25T12:58:24.166Z,99442.50
2022-10-25T13:01:07.392Z,99451.72
2022-10-25T13:04:01.829Z,99452.72
2022-10-25T13:06:34.380Z,99458.78
2022-10-25T13:09:07.486Z,99448.59
2022-10-25T13:11:40.458Z,99463.81
2022-10-25T13:14:20.258Z,99452.97
2022-10-25T13:16:48.436Z,99463.56
2022-10-25T13:19:49.385Z,99458.50
2022-10-25T13:22:35.672Z,99474.91
2022-10-25T13:25:10.076Z,99488.44
2022-10-25T13:27:41.448Z,99483.50
2022-10-25T13:30:27.790Z,99497.69
2022-10-25T13:33:28.209Z,99492.91
2022-10-25T13:36:05.149Z,99485.28
2022-10-25T13:38:39.328Z,99488.56
2022-10-25T13:41:13.617Z,99495.44
2022-10-25T13:44:02.209Z,99493.06
2022-10-25T13:46:38.563Z,99495.16
2022-10-25T13:49:28.892Z,99500.31
2022-10-25T13:51:59.233Z,99497.78
2022-10-25T13:54:39.470Z,99492.00
2022-10-25T13:57:48.405Z,99494.69
2022-10-25T14:00:47.874Z,99503.31
2022-10-25T14:03:34.725Z,99496.31
2022-10-25T14:06:23.857Z,99495.34
2022-10-25T14:08:58.061Z,99495.81
2022-10-25T14:11:36.599Z,99500.94
2022-10-25T14:14:16.879Z,99510.56
2022-10-25T14:16:56.619Z,99493.84
2022-10-25T14:19:37.446Z,99500.00
2022-10-25T14:22:14.564Z,99504.44
2022-10-25T14:24:43.850Z,99499.25
2022-10-25T14:27:29.170Z,99493.09
2022-10-25T14:30:23.043Z,99491.25
2022-10-25T14:32:53.576Z,99502.53
2022-10-25T14:35:22.908Z,99502.53
2022-10-25T14:37:51.805Z,99510.72
2022-10-25T14:40:23.462Z,99505.28
2022-10-25T14:42:55.030Z,99499.88
2022-10-25T14:45:26.838Z,99511.72
2022-10-25T14:47:55.806Z,99500.25
2022-10-25T14:50:26.862Z,99488.91
2022-10-25T14:52:56.951Z,99499.72
2022-10-25T14:55:32.272Z,99504.84
2022-10-25T14:58:03.629Z,99503.06
2022-10-25T15:00:33.941Z,99508.47
2022-10-25T15:03:05.782Z,99506.97
2022-10-25T15:05:34.383Z,99510.06
2022-10-25T15:08:02.588Z,99500.28
2022-10-25T15:10:41.676Z,99506.88
2022-10-25T15:13:17.718Z,99504.13
2022-10-25T15:15:49.688Z,99511.03
2022-10-25T15:18:24.866Z,99512.97
2022-10-25T15:21:04.343Z,99515.72
2022-10-25T15:23:34.247Z,99514.59
2022-10-25T15:26:27.352Z,99518.22
2022-10-25T15:28:58.029Z,99514.25
2022-10-25T15:31:29.524Z,99514.94
2022-10-25T15:33:59.521Z,99520.22
2022-10-25T15:36:29.870Z,99521.97
2022-10-25T15:39:10.539Z,99517.75
2022-10-25T15:41:42.079Z,99528.41
2022-10-25T15:44:10.387Z,99529.31
2022-10-25T15:46:40.176Z,99536.44
2022-10-25T15:49:09.856Z,99520.94
2022-10-25T15:51:44.847Z,99531.97
2022-10-25T15:54:17.705Z,99525.75
2022-10-25T15:56:46.540Z,99531.28
2022-10-25T16:01:49.213Z,99541.84
2022-10-25T16:04:19.731Z,99535.81
2022-10-25T16:06:48.523Z,99541.63
2022-10-25T16:09:17.056Z,99530.88
2022-10-25T16:11:49.457Z,99548.53
2022-10-25T16:14:23.225Z,99544.81
2022-10-25T16:16:53.341Z,99543.00
2022-10-25T16:19:22.681Z,99539.44
2022-10-25T16:21:51.186Z,99550.00
2022-10-25T16:24:19.811Z,99560.34
2022-10-25T16:26:50.226Z,99559.75
2022-10-25T16:29:20.637Z,99556.00
2022-10-25T16:31:49.029Z,99554.16
2022-10-25T16:34:19.690Z,99557.72
2022-10-25T16:36:49.260Z,99558.78
2022-10-25T16:39:18.858Z,99558.06
2022-10-25T16:41:48.949Z,99561.41
2022-10-25T16:44:19.515Z,99566.91
2022-10-25T16:46:48.179Z,99556.66
2022-10-25T16:49:16.555Z,99560.13
2022-10-25T16:51:51.180Z,99567.00
2022-10-25T16:54:23.834Z,99566.88
2022-10-25T16:56:52.675Z,99561.41
2022-10-25T16:59:20.824Z,99557.09
2022-10-25T17:01:55.818Z,99558.69
2022-10-25T17:04:24.731Z,99563.25
2022-10-25T17:06:54.198Z,99571.72
2022-10-25T17:09:22.486Z,99568.28
2022-10-25T17:11:50.950Z,99589.91
2022-10-25T17:14:19.404Z,99564.00
2022-10-25T17:16:47.733Z,99590.97
2022-10-25T17:19:16.048Z,99588.06
2022-10-25T17:21:44.125Z,99591.38
2022-10-25T17:24:14.476Z,99599.44
2022-10-25T17:26:42.792Z,99603.59
2022-10-25T17:29:11.923Z,99601.16
2022-10-25T17:31:41.193Z,99610.28
2022-10-25T17:34:10.642Z,99619.13
2022-10-25T17:36:39.056Z,99621.16
2022-10-25T17:39:08.976Z,99626.03
2022-10-25T17:41:38.739Z,99622.53
2022-10-25T17:44:07.364Z,99625.28
2022-10-25T17:46:37.689Z,99622.69
2022-10-25T17:49:06.228Z,99637.38
2022-10-25T17:51:42.458Z,99639.09
2022-10-25T17:54:13.893Z,99648.25
2022-10-25T17:56:43.645Z,99637.91
2022-10-25T17:59:11.978Z,99656.78
2022-10-25T18:01:42.427Z,99667.69
2022-10-25T18:04:10.929Z,99657.13
2022-10-25T18:06:39.135Z,99660.25
2022-10-25T18:09:07.294Z,99664.56
2022-10-25T18:11:36.126Z,99664.81
2022-10-25T18:14:06.582Z,99681.72
2022-10-25T18:16:35.155Z,99672.97
2022-10-25T18:19:05.783Z,99683.47
2022-10-25T18:21:34.766Z,99677.84
2022-10-25T18:24:05.991Z,99679.19
2022-10-25T18:26:35.474Z,99691.41
2022-10-25T18:29:05.237Z,99695.97
2022-10-25T18:31:33.979Z,99686.03
2022-10-25T18:34:04.695Z,99688.75
2022-10-25T18:36:33.346Z,99701.25
2022-10-25T18:39:01.534Z,99704.72
2022-10-25T18:41:32.794Z,99696.38
2022-10-25T18:44:02.710Z,99712.97
2022-10-25T18:46:32.854Z,99714.88
2022-10-25T18:49:01.502Z,99711.81
2022-10-25T18:51:30.339Z,99718.00
2022-10-25T18:53:59.841Z,99727.69
2022-10-25T18:56:29.699Z,99713.44
2022-10-25T18:58:59.241Z,99718.00
2022-10-25T19:01:33.734Z,99713.53
2022-10-25T19:04:03.789Z,99717.00
2022-10-25T19:06:33.329Z,99703.94
2022-10-25T19:09:11.008Z,99708.25
2022-10-25T19:11:44.284Z,99688.41
2022-10-25T19:14:13.414Z,99727.47
2022-10-25T19:16:43.823Z,99716.41
2022-10-25T19:19:12.322Z,99729.53
2022-10-25T19:21:40.684Z,99718.97
2022-10-25T19:24:13.996Z,99724.00
2022-10-25T19:26:42.454Z,99731.03
2022-10-25T19:29:11.341Z,99736.34
2022-10-25T19:31:39.722Z,99730.91
2022-10-25T19:34:10.088Z,99737.22
2022-10-25T19:36:38.697Z,99743.56
2022-10-25T19:39:07.105Z,99748.84
2022-10-25T19:41:35.485Z,99738.97
2022-10-25T19:44:03.766Z,99737.03
2022-10-25T19:46:32.642Z,99748.72
2022-10-25T19:49:01.564Z,99747.19
2022-10-25T19:51:31.664Z,99754.53
2022-10-25T19:54:00.029Z,99752.47
2022-10-25T19:56:28.287Z,99757.66
2022-10-25T19:58:56.921Z,99765.69
2022-10-25T20:01:28.322Z,99768.34
2022-10-25T20:03:58.960Z,99768.34
2022-10-25T20:06:29.430Z,99773.75
2022-10-25T20:09:00.485Z,99778.19
2022-10-25T20:11:29.549Z,99787.56
2022-10-25T20:13:59.125Z,99789.41
2022-10-25T20:16:28.268Z,99785.13
2022-10-25T20:18:57.381Z,99792.50
2022-10-25T20:21:28.024Z,99785.53
2022-10-25T20:23:59.800Z,99796.75
2022-10-25T20:26:29.568Z,99809.31
2022-10-25T20:29:00.241Z,99803.91
2022-10-25T20:31:30.730Z,99816.41
2022-10-25T20:33:59.697Z,99809.19
2022-10-25T20:36:28.691Z,99816.22
2022-10-25T20:38:58.510Z,99805.75
2022-10-25T20:41:28.472Z,99825.03
2022-10-25T20:44:00.183Z,99821.59
2022-10-25T20:46:30.371Z,99819.97
2022-10-25T20:48:59.207Z,99820.53
2022-10-25T20:51:28.000Z,99827.34
2022-10-25T20:53:59.069Z,99819.56
2022-10-25T20:56:28.318Z,99832.75
2022-10-25T20:58:56.512Z,99832.75
2022-10-25T21:01:24.950Z,99826.69
2022-10-25T21:03:54.350Z,99824.28
2022-10-25T21:06:22.659Z,99834.66
2022-10-25T21:08:51.142Z,99820.75
2022-10-25T21:11:20.934Z,99827.19
2022-10-25T21:13:49.246Z,99843.88
2022-10-25T21:16:17.965Z,99838.38
2022-10-25T21:18:46.577Z,99835.13
2022-10-25T21:21:19.546Z,99852.44
2022-10-25T21:23:48.655Z,99838.50
2022-10-25T21:26:17.110Z,99838.66
2022-10-25T21:28:46.687Z,99855.97
2022-10-25T21:31:17.128Z,99859.56
2022-10-25T21:33:50.066Z,99857.94
2022-10-25T21:36:20.700Z,99851.69
2022-10-25T21:38:49.033Z,99865.59
2022-10-25T21:41:20.809Z,99851.72
2022-10-25T21:43:51.541Z,99868.44
2022-10-25T21:46:21.372Z,99864.78
2022-10-25T21:48:51.288Z,99871.66
2022-10-25T21:51:20.528Z,99859.44
2022-10-25T21:53:49.014Z,99876.09
2022-10-25T21:56:19.649Z,99880.31
2022-10-25T21:58:51.050Z,99876.75
2022-10-25T22:01:23.833Z,99877.63
2022-10-25T22:03:53.488Z,99882.38
2022-10-25T22:06:23.065Z,99885.75
2022-10-25T22:08:51.702Z,99882.03
2022-10-25T22:11:21.970Z,99885.59
2022-10-25T22:13:56.802Z,99885.69
2022-10-25T22:16:27.090Z,99885.47
2022-10-25T22:18:59.077Z,99883.66
2022-10-25T22:21:31.216Z,99892.78
2022-10-25T22:23:59.702Z,99898.06
2022-10-25T22:26:28.263Z,99900.44
2022-10-25T22:28:58.587Z,99905.16
2022-10-25T22:31:31.121Z,99913.81
2022-10-25T22:34:00.800Z,99908.16
2022-10-25T22:36:31.014Z,99905.50
2022-10-25T22:38:59.292Z,99909.75
2022-10-25T22:41:29.394Z,99911.66
2022-10-25T22:43:58.631Z,99911.66
2022-10-25T22:46:30.598Z,99924.66
2022-10-25T22:49:00.049Z,99918.72
2022-10-25T22:51:29.478Z,99914.47
2022-10-25T22:53:57.725Z,99921.38
2022-10-25T22:56:28.242Z,99926.63
2022-10-25T22:58:57.860Z,99926.91
2022-10-25T23:01:29.444Z,99935.66
2022-10-25T23:03:59.427Z,99931.88
2022-10-25T23:06:29.944Z,99929.22
2022-10-25T23:08:59.681Z,99938.09
2022-10-25T23:11:30.098Z,99936.25
2022-10-25T23:13:59.316Z,99948.75
2022-10-25T23:16:29.914Z,99945.28
2022-10-25T23:18:58.572Z,99962.94
2022-10-25T23:21:30.457Z,99952.13
2022-10-25T23:24:00.342Z,99956.47
2022-10-25T23:26:32.307Z,99955.56
2022-10-25T23:29:02.319Z,99964.22
2022-10-25T23:31:32.633Z,99958.13
2022-10-25T23:34:02.054Z,99967.59
2022-10-25T23:36:37.691Z,99967.59
2022-10-25T23:39:08.059Z,99980.00
2022-10-25T23:41:36.844Z,99976.28
2022-10-25T23:44:05.412Z,99989.28
2022-10-25T23:46:35.688Z,99986.50
2022-10-25T23:49:04.082Z,99985.53
2022-10-25T23:51:32.202Z,99991.63
2022-10-25T23:54:00.527Z,99990.59
2022-10-25T23:56:29.133Z,99979.81
2022-10-25T23:58:57.264Z,99988.59
